ENGLEBRIGHT (USACE) (ENG)

Elevation: 551' · YUBA R basin · Operator: US Army Corps of Engineers

Provisional data, subject to change.
Query executed Tuesday at 7:12:16   clock

Select a sensor type for a plot of data.
Note: Reservoir Flows are daily averages.

Earlier

Date RES ELE    STORAGE    RES CHG    OUTFLOW    INFLOW    PPT INC   
 FEET   AF   AF   CFS   CFS   INCHES  
03/22/2015 519.98 64417 -207 -- 438 0.11
03/23/2015 520.05 64471 54 -- 570 0.04
03/24/2015 520.18 64570 99 -- 593 0.00
03/25/2015 520.57 64870 300 -- 694 0.00
03/26/2015 520.83 65070 200 -- 106 0.00
03/27/2015 520.96 65170 100 -- 606 0.00
03/28/2015 -- -- -- -- -- 0.00
03/29/2015 521.01 65209 -- -- 549 0.00
03/30/2015 521.04 65232 -- -- 568 0.00
03/31/2015 521.05 65240 --r -- 561 0.00
04/01/2015 520.97 65178 -- -- 591 0.00
04/02/2015 520.21 64593 -585 -- -72 0.00
04/03/2015 519.89 64349 -244 -- 585 0.00
04/04/2015 519.92 64371 22 -- 719 0.00
04/05/2015 520.05 64471 100 -- 754 0.13
04/06/2015 520.17 64563 92 -- 746 0.00
04/07/2015 520.65 64931 368 -- 869 1.17
04/08/2015 520.77 65024 93 -- 718 0.02
04/09/2015 521.04 65232 208 -- 777 0.00
04/10/2015 521.10 65278 46 -- 679 0.00
04/11/2015 521.03 65224 -54 -- 623 0.00
04/12/2015 520.43 64762 -462 -- 439 0.00
04/13/2015 520.63 64916 -- -- 776 0.00
04/14/2015 520.48 64801 -- -- 653 0.00
04/15/2015 520.52 64831 30 -- 755 0.00
04/16/2015 520.81 65055 224 -- 933 0.00
04/17/2015 521.08 65263 208 -- 1030 0.00
04/18/2015 520.88 65109 -154 -- 894 0.00
04/19/2015 520.22 64601 -508 -- 735 0.00
04/20/2015 520.29 64655 54 -- 27 0.00
04/21/2015 -- -- -- -- -- --

Later | Latest

Warning! This data is preliminary and subject to revision.

Show ENG Map | Plot ENG Data | 1 Month ENG Data | Real-Time ENG Data | ENG Info